Kimseytown, NJ

1:30 AM EDT on April 26, 2017 (GMT -0400)
Fishing Creek | | Change Station
Active Advisory: Special Statement

Elev 23 ft 39.00 °N, 74.93 °W | Updated 44 seconds ago

Fog
Fog
61.7 °F
Feels Like 61.7 °F
N
7.0
Wind Variable Wind from WNW
Gusts 0.0 mph

Today
High -- | Low -- °F
--% Chance of Precip.
Yesterday
High -- | Low -- °F
Precip. -- in
Pressure 29.69 in
Visibility 0.5 miles
Clouds Overcast 300 ft
Dew Point 56.4 °F
Humidity 96%
Rainfall in
Snow Depth Not available.
6:07 AM 7:47 PM
Waning Crescent, 0% visible
METAR KWWD 260456Z AUTO 07004KT 1/2SM FG OVC003 14/14 A2968 RMK AO2 RAB31E55 SLP053 P0000 T01440139 401500117 $
Pressure 29.69 in
Visibility 0.5 miles
Clouds Overcast 300 ft
Dew Point 56.4 °F
Humidity 96%
Rainfall in
Snow Depth Not available.
6:07 AM 7:47 PM
Waning Crescent, 0% visible
METAR KWWD 260456Z AUTO 07004KT 1/2SM FG OVC003 14/14 A2968 RMK AO2 RAB31E55 SLP053 P0000 T01440139 401500117 $

Get Your Daily Forecast Email!

Thanks for signing up!

Be on the lookout for a verification email in your inbox.

You'll start receiving severe weather alerts in your inbox..

×

10-Day Weather Forecast

Almanac

Astronomy

Apr. 26, 2017 Rise Set
Actual Time
Civil Twilight
Nautical Twilight
Astronomical Twilight
Moon
Length of Visible Light
Length of Day
Tomorrow will be .
, % of the Moon is Illuminated

Today's Extremes

State Highs State Lows

Community

WunderPhotos

WunderBlog® & News

Nearby

Air Quality

  Air Quality AQ Index Pollutant
Not available.

Snow Depth

Station Depth Elevation

Earthquake Activity

City Distance Mag. Time & Date
Minimum magnitude displayed is 2.5.

Coastal Water Temperatures

Place Temperature

Stations

Nearby Weather Stations

Station Location Temp. Windchill Dew Point Humidity Wind Precip. Elev Updated Type
                   

Watches & Warnings

Special Statement
Issued: 11:42 PM EDT Apr. 25, 2017 – National Weather Service

... Fog may become locally dense overnight near the coast...

Onshore winds will advect fog over the ocean inland into coastal
communities tonight. The fog may become locally dense in spots
during the overnight with visibility reduced to as low as one-
quarter mile at times. At least patchy dense fog could persist
into the morning and affect the morning commute.

If traveling overnight, be prepared for rapidly changing
visibility in these areas. Allow extra time to reach your
destination and if you encounter fog, reduce speed, use your low-
beam headlights and allow extra following distance from cars in
front of you.

Jrk